LAS weather

McCarran International Airport
Las Vegas, Nevada, United States

Public forecast

Using degrees Fahrenheit for public forecast. Weather courtesy of forecast.io.

METAR (pilot weather report)

Retrieved 2018/04/25 03:56 UTC (30 minutes ago):

KLAS 250356Z 00000KT 10SM BKN250 29/M03 A2993 RMK AO2 SLP110 T02941033

TAF (pilot weather forecast)

Forecast is more than 12 hours old.

Retrieved 2018/04/24 00:22 UTC (1 day ago):

TAF KLAS 242320Z 2500/2606 05005KT P6SM SCT250 FM250600 02009KT P6SM BKN250 FM250900 18006KT P6SM BKN250 FM251400 VRB04KT P6SM SCT250 FM251700 05006KT P6SM BKN250 FM260300 25007KT P6SM SCT200